Time;durP1;ratioP1;P1;durP2;ratioP2;P2;SDS_P1;SDS_P2;PMS_P1;PMS_P2;Temp;Humidity;BMP_temperature;BMP_pressure;BME280_temperature;BME280_humidity;BME280_pressure;Samples;Min_cycle;Max_cycle;Signal;HPM_P1;HPM_P2
2022/09/24 00:00:56;;;;;;;50.90;35.90;;;13.40;99.90;;;;;;5054513;28;20538;-80
2022/09/24 00:03:23;;;;;;;52.30;36.97;;;13.40;99.90;;;;;;5067962;28;20054;-79
2022/09/24 00:05:51;;;;;;;56.25;37.47;;;13.40;99.90;;;;;;5050373;28;20475;-79
2022/09/24 00:08:18;;;;;;;53.17;37.88;;;13.30;99.90;;;;;;5044444;28;20042;-80
2022/09/24 00:10:45;;;;;;;58.80;38.63;;;13.40;99.90;;;;;;5068353;28;20092;-80
2022/09/24 00:13:14;;;;;;;52.10;37.72;;;13.40;99.90;;;;;;5053189;28;20392;-77
2022/09/24 00:15:43;;;;;;;58.55;40.78;;;13.40;99.90;;;;;;5038905;28;20483;-80
2022/09/24 00:18:10;;;;;;;60.72;40.65;;;13.40;99.90;;;;;;5046595;28;20075;-79
2022/09/24 00:20:37;;;;;;;52.80;40.00;;;13.30;99.90;;;;;;5051982;28;20044;-79
2022/09/24 00:23:04;;;;;;;65.30;41.70;;;13.40;99.90;;;;;;5054679;28;20090;-77
2022/09/24 00:28:15;;;;;;;61.35;40.88;;;13.30;99.90;;;;;;5062262;28;20076;-80
2022/09/24 00:30:42;;;;;;;65.55;42.85;;;13.40;99.90;;;;;;5049319;28;20036;-80
2022/09/24 00:33:09;;;;;;;67.65;42.95;;;13.40;99.90;;;;;;5066072;28;20063;-80
2022/09/24 00:35:36;;;;;;;65.57;42.65;;;13.40;99.90;;;;;;5066918;28;20036;-80
2022/09/24 00:38:04;;;;;;;62.50;43.67;;;13.40;99.90;;;;;;5047489;28;20094;-78
2022/09/24 00:40:32;;;;;;;65.88;44.35;;;13.40;99.90;;;;;;5072191;28;20131;-80
2022/09/24 00:42:58;;;;;;;68.18;44.45;;;13.40;99.90;;;;;;5063999;28;20042;-78
2022/09/24 00:45:42;;;;;;;69.30;44.83;;;13.40;99.90;;;;;;5065357;28;20166;-80
2022/09/24 00:48:08;;;;;;;70.63;46.13;;;13.40;99.90;;;;;;5066322;28;20043;-79
2022/09/24 00:50:35;;;;;;;73.13;45.78;;;13.40;99.90;;;;;;5050531;28;20048;-80
2022/09/24 00:53:12;;;;;;;72.78;49.53;;;13.40;99.90;;;;;;5064792;28;20032;-78
2022/09/24 00:55:42;;;;;;;70.70;47.83;;;13.40;99.90;;;;;;5088661;28;20104;-78
2022/09/24 00:58:08;;;;;;;72.78;49.47;;;13.40;99.90;;;;;;5069459;28;20386;-77
2022/09/24 01:00:37;;;;;;;77.28;49.03;;;13.50;99.90;;;;;;5086347;28;20051;-78
2022/09/24 01:03:15;;;;;;;72.25;48.30;;;13.50;99.90;;;;;;5090102;28;20035;-77
2022/09/24 01:05:41;;;;;;;73.88;50.33;;;13.50;99.90;;;;;;5085701;28;20363;-77
2022/09/24 01:08:11;;;;;;;77.72;51.08;;;13.50;99.90;;;;;;5080288;28;20130;-79
2022/09/24 01:10:49;;;;;;;77.95;50.65;;;13.50;99.90;;;;;;5051666;28;20126;-78
2022/09/24 01:13:54;;;;;;;69.22;49.45;;;13.50;99.90;;;;;;5067814;28;20036;-79
2022/09/24 01:16:56;;;;;;;71.80;48.45;;;13.50;99.90;;;;;;5044491;28;20041;-80
2022/09/24 01:19:55;;;;;;;70.38;48.72;;;13.50;99.90;;;;;;5036171;28;20083;-79
2022/09/24 01:22:56;;;;;;;75.03;49.17;;;13.50;99.90;;;;;;5027673;28;20033;-79
2022/09/24 01:25:38;;;;;;;87.07;52.53;;;13.50;99.90;;;;;;5046535;28;20048;-79
2022/09/24 01:28:12;;;;;;;84.78;51.58;;;13.50;99.90;;;;;;5046727;28;20044;-78
2022/09/24 01:30:40;;;;;;;77.30;51.47;;;13.50;99.90;;;;;;5031264;28;20098;-78
2022/09/24 01:33:16;;;;;;;83.70;53.60;;;13.50;99.90;;;;;;5058988;28;20041;-77
2022/09/24 01:35:54;;;;;;;87.30;54.60;;;13.50;99.90;;;;;;5032561;28;21186;-77
2022/09/24 01:38:29;;;;;;;89.43;55.75;;;13.50;99.90;;;;;;5044117;28;20052;-79
2022/09/24 01:40:58;;;;;;;98.25;57.95;;;13.50;99.90;;;;;;5025467;28;20040;-78
2022/09/24 01:43:26;;;;;;;97.38;57.85;;;13.50;99.90;;;;;;5045345;28;20116;-78
2022/09/24 01:45:57;;;;;;;88.03;56.03;;;13.50;99.90;;;;;;5024821;28;20384;-80
2022/09/24 01:48:24;;;;;;;94.30;57.33;;;13.50;99.90;;;;;;5046546;28;20149;-80
2022/09/24 01:51:14;;;;;;;95.32;59.92;;;13.50;99.90;;;;;;5032714;28;20093;-78
2022/09/24 01:53:58;;;;;;;99.25;61.05;;;13.50;99.90;;;;;;5026951;28;20203;-79
2022/09/24 01:56:29;;;;;;;90.38;57.83;;;13.50;99.90;;;;;;5040782;28;20052;-80
2022/09/24 01:59:08;;;;;;;97.68;60.63;;;13.50;99.90;;;;;;5032992;28;20166;-79
2022/09/24 02:01:41;;;;;;;97.50;60.15;;;13.50;99.90;;;;;;5032764;28;20032;-80
2022/09/24 02:04:16;;;;;;;108.82;62.83;;;13.50;99.90;;;;;;5027804;28;20080;-77
2022/09/24 02:06:56;;;;;;;100.45;61.00;;;13.50;99.90;;;;;;5047562;28;20099;-79
2022/09/24 02:09:32;;;;;;;98.68;59.53;;;13.50;99.90;;;;;;5021966;28;20086;-78
2022/09/24 02:12:04;;;;;;;91.40;57.45;;;13.60;99.90;;;;;;5028305;28;20071;-79
2022/09/24 02:14:35;;;;;;;106.25;62.67;;;13.60;99.90;;;;;;5043038;28;20051;-80
2022/09/24 02:17:02;;;;;;;106.72;64.03;;;13.60;99.90;;;;;;5051524;28;20123;-77
2022/09/24 02:19:30;;;;;;;100.40;61.70;;;13.50;99.90;;;;;;5062365;28;20039;-79
2022/09/24 02:21:57;;;;;;;103.72;62.88;;;13.50;99.90;;;;;;5068677;28;20035;-82
2022/09/24 02:24:35;;;;;;;104.30;64.10;;;13.50;99.90;;;;;;5057402;28;20044;-78
2022/09/24 02:27:01;;;;;;;102.40;61.80;;;13.50;99.90;;;;;;5071505;28;20444;-81
2022/09/24 02:29:27;;;;;;;100.30;60.33;;;13.50;99.90;;;;;;5073895;28;20051;-77
2022/09/24 02:31:55;;;;;;;111.60;63.47;;;13.50;99.90;;;;;;5076806;28;20134;-81
2022/09/24 02:34:30;;;;;;;96.22;61.08;;;13.50;99.90;;;;;;5054157;28;20045;-78
2022/09/24 02:37:04;;;;;;;109.20;64.65;;;13.50;99.90;;;;;;5063284;28;20033;-82
2022/09/24 02:39:30;;;;;;;93.40;59.65;;;13.50;99.90;;;;;;5058269;28;20047;-78
2022/09/24 02:41:57;;;;;;;94.45;60.08;;;13.50;99.90;;;;;;5042843;28;20048;-78
2022/09/24 02:44:23;;;;;;;98.97;58.78;;;13.40;99.90;;;;;;5046035;28;20036;-78
2022/09/24 02:46:49;;;;;;;98.45;60.08;;;13.50;99.90;;;;;;5061746;28;20042;-79
2022/09/24 02:49:15;;;;;;;89.03;54.85;;;13.50;99.90;;;;;;5044910;28;20171;-79
2022/09/24 02:51:42;;;;;;;92.97;56.63;;;13.50;99.90;;;;;;5046452;28;20040;-80
2022/09/24 02:54:08;;;;;;;88.03;54.08;;;13.50;99.90;;;;;;5066422;28;20038;-80
2022/09/24 02:56:34;;;;;;;92.13;54.00;;;13.50;99.90;;;;;;5067384;28;20061;-81
2022/09/24 02:59:03;;;;;;;87.82;52.22;;;13.50;99.90;;;;;;5064524;28;20118;-79
2022/09/24 03:01:29;;;;;;;81.45;52.45;;;13.50;99.90;;;;;;5047181;28;20039;-81
2022/09/24 03:03:55;;;;;;;90.15;54.33;;;13.40;99.90;;;;;;5051533;28;20032;-78
2022/09/24 03:06:21;;;;;;;93.28;54.47;;;13.50;99.90;;;;;;5068117;28;20055;-77
2022/09/24 03:08:47;;;;;;;102.15;58.30;;;13.50;99.90;;;;;;5038382;28;20770;-81
2022/09/24 03:11:13;;;;;;;74.82;48.83;;;13.50;99.90;;;;;;5055953;28;20119;-77
2022/09/24 03:13:39;;;;;;;81.68;51.10;;;13.40;99.90;;;;;;5075356;28;20067;-78
2022/09/24 03:16:06;;;;;;;90.05;53.25;;;13.50;99.90;;;;;;5060495;28;20499;-78
2022/09/24 03:18:32;;;;;;;74.43;48.55;;;13.50;99.90;;;;;;5071343;28;20047;-77
2022/09/24 03:21:00;;;;;;;100.47;53.95;;;13.40;99.90;;;;;;5058692;28;20461;-80
2022/09/24 03:23:26;;;;;;;88.38;53.13;;;13.50;99.90;;;;;;5073350;28;20032;-81
2022/09/24 03:25:53;;;;;;;88.43;53.55;;;13.40;99.90;;;;;;5068286;28;20047;-79
2022/09/24 03:28:18;;;;;;;91.55;52.22;;;13.40;99.90;;;;;;5074094;28;20043;-79
2022/09/24 03:30:59;;;;;;;94.40;54.80;;;13.50;99.90;;;;;;5071387;28;20032;-79
2022/09/24 03:33:25;;;;;;;74.88;47.88;;;13.50;99.90;;;;;;5069302;28;20402;-77
2022/09/24 03:36:01;;;;;;;87.53;50.60;;;13.50;99.90;;;;;;5056600;28;20033;-78
2022/09/24 03:38:28;;;;;;;86.18;50.13;;;13.50;99.90;;;;;;5067612;28;20048;-77
2022/09/24 03:40:57;;;;;;;82.57;49.40;;;13.50;99.90;;;;;;5071664;28;20081;-77
2022/09/24 03:43:23;;;;;;;87.05;50.78;;;13.50;99.90;;;;;;5035957;28;20159;-79
2022/09/24 03:45:49;;;;;;;74.60;47.35;;;13.50;99.90;;;;;;5052062;28;20110;-78
2022/09/24 03:48:16;;;;;;;68.15;42.88;;;13.50;99.90;;;;;;5051380;28;20463;-78
2022/09/24 03:50:42;;;;;;;68.70;41.75;;;13.40;99.90;;;;;;5067613;28;20373;-79
2022/09/24 03:53:08;;;;;;;65.38;42.15;;;13.50;99.90;;;;;;5037528;28;20051;-79
2022/09/24 03:55:40;;;;;;;65.45;43.20;;;13.60;99.90;;;;;;5049888;28;20119;-81
2022/09/24 03:58:07;;;;;;;68.43;42.25;;;13.60;99.90;;;;;;5072275;28;20040;-80
2022/09/24 04:00:32;;;;;;;70.80;42.95;;;13.50;99.90;;;;;;5051546;28;20040;-80
2022/09/24 04:02:58;;;;;;;69.40;43.80;;;13.60;99.90;;;;;;5067979;28;20028;-78
2022/09/24 04:05:24;;;;;;;56.75;37.75;;;13.60;99.90;;;;;;5070402;28;20038;-77
2022/09/24 04:07:49;;;;;;;65.60;40.20;;;13.60;99.90;;;;;;5044919;28;22316;-80
2022/09/24 04:10:15;;;;;;;68.85;42.75;;;13.60;99.90;;;;;;5064041;28;20052;-78
2022/09/24 04:12:44;;;;;;;66.57;40.88;;;13.60;99.90;;;;;;5051660;28;20109;-78
2022/09/24 04:15:10;;;;;;;70.22;40.35;;;13.60;99.90;;;;;;5044142;28;20070;-81
2022/09/24 04:17:35;;;;;;;66.07;37.72;;;13.60;99.90;;;;;;5070350;28;20041;-78
2022/09/24 04:20:01;;;;;;;57.92;34.28;;;13.60;99.90;;;;;;5073915;28;20043;-79
2022/09/24 04:22:27;;;;;;;54.30;31.90;;;13.60;99.90;;;;;;5057757;28;20399;-79
2022/09/24 04:24:56;;;;;;;53.20;29.58;;;13.60;99.90;;;;;;5072538;28;20413;-79
2022/09/24 04:27:22;;;;;;;39.40;16.27;;;13.60;99.90;;;;;;5067829;28;20055;-77
2022/09/24 04:29:48;;;;;;;34.15;15.32;;;13.60;99.90;;;;;;5069071;28;20044;-78
2022/09/24 04:32:13;;;;;;;34.55;12.32;;;13.70;99.90;;;;;;5050895;28;20063;-79
2022/09/24 04:34:39;;;;;;;27.20;8.43;;;13.60;99.90;;;;;;5054507;28;20060;-79
2022/09/24 04:37:05;;;;;;;23.95;7.05;;;13.60;99.90;;;;;;5064788;28;20168;-79
2022/09/24 04:39:31;;;;;;;21.67;6.38;;;13.70;99.90;;;;;;5064552;28;20028;-77
2022/09/24 04:41:56;;;;;;;21.77;4.88;;;13.60;99.90;;;;;;5064774;28;20100;-79
2022/09/24 04:44:22;;;;;;;16.58;3.63;;;13.60;99.90;;;;;;5070879;28;20364;-79
2022/09/24 04:46:49;;;;;;;23.27;3.97;;;13.60;99.90;;;;;;5050986;28;20086;-79
2022/09/24 04:49:14;;;;;;;22.45;3.55;;;13.60;99.90;;;;;;5067398;28;20032;-78
2022/09/24 04:51:40;;;;;;;19.77;3.10;;;13.60;99.90;;;;;;5065485;28;20086;-78
2022/09/24 04:54:08;;;;;;;22.33;3.20;;;13.50;99.90;;;;;;5064119;28;20404;-81
2022/09/24 04:56:33;;;;;;;20.95;3.15;;;13.60;99.90;;;;;;5067208;28;20047;-78
2022/09/24 04:58:59;;;;;;;21.50;2.60;;;13.50;99.90;;;;;;5054544;28;20044;-78
2022/09/24 05:01:25;;;;;;;21.88;2.63;;;13.50;99.90;;;;;;5053477;28;20075;-79
2022/09/24 05:03:52;;;;;;;22.63;3.33;;;13.50;99.90;;;;;;5054191;28;20052;-79
2022/09/24 05:06:19;;;;;;;20.73;2.97;;;13.50;99.90;;;;;;5070968;28;20052;-78
2022/09/24 05:08:45;;;;;;;26.00;3.35;;;13.50;99.90;;;;;;5049437;28;20052;-81
2022/09/24 05:11:11;;;;;;;19.95;3.00;;;13.50;99.90;;;;;;5047624;28;20055;-80
2022/09/24 05:13:37;;;;;;;19.08;2.85;;;13.50;99.90;;;;;;5066452;28;20036;-80
2022/09/24 05:16:03;;;;;;;18.83;2.50;;;13.50;99.90;;;;;;5066131;28;20044;-79
2022/09/24 05:18:29;;;;;;;18.65;2.75;;;13.50;99.90;;;;;;5047063;28;20048;-80
2022/09/24 05:20:57;;;;;;;16.38;3.00;;;13.60;99.90;;;;;;5059778;28;20048;-79
2022/09/24 05:23:23;;;;;;;20.85;2.55;;;13.50;99.90;;;;;;5059517;28;20044;-79
2022/09/24 05:28:34;;;;;;;18.73;3.00;;;13.50;99.90;;;;;;5060430;28;20044;-79
2022/09/24 05:31:02;;;;;;;13.60;1.85;;;13.50;99.90;;;;;;5082934;28;20483;-79
2022/09/24 05:33:28;;;;;;;19.67;2.28;;;13.50;99.90;;;;;;5046516;28;20058;-80
2022/09/24 05:35:57;;;;;;;12.85;2.03;;;13.50;99.90;;;;;;5060168;28;20540;-80
2022/09/24 05:38:23;;;;;;;11.02;1.85;;;13.50;99.90;;;;;;5061486;28;20135;-79
2022/09/24 05:40:49;;;;;;;14.68;2.05;;;13.50;99.90;;;;;;5064763;28;20122;-80
2022/09/24 05:43:16;;;;;;;15.98;2.45;;;13.50;99.90;;;;;;5061361;28;20135;-80
2022/09/24 05:45:44;;;;;;;19.35;2.60;;;13.50;99.90;;;;;;5045261;28;20063;-78
2022/09/24 05:48:10;;;;;;;13.60;2.10;;;13.50;99.90;;;;;;5049108;28;20090;-77
2022/09/24 05:50:35;;;;;;;16.50;1.95;;;13.60;99.90;;;;;;5046582;28;20523;-78
2022/09/24 05:53:03;;;;;;;19.27;2.15;;;13.50;99.90;;;;;;5069529;28;20039;-79
2022/09/24 05:55:29;;;;;;;16.85;2.33;;;13.50;99.90;;;;;;5042565;28;20119;-79
2022/09/24 05:57:55;;;;;;;13.27;2.53;;;13.60;99.90;;;;;;5066078;28;20063;-77
2022/09/24 06:04:01;;;;;;;21.17;2.45;;;13.60;99.90;;;;;;5090271;28;20427;-80
2022/09/24 06:06:27;;;;;;;16.58;2.05;;;13.60;99.90;;;;;;5074547;28;20063;-79
2022/09/24 06:08:53;;;;;;;20.33;2.60;;;13.60;99.90;;;;;;5078678;28;20038;-79
2022/09/24 06:11:23;;;;;;;15.52;2.60;;;13.70;99.90;;;;;;5046627;28;20048;-78
2022/09/24 06:13:50;;;;;;;20.55;3.05;;;13.80;99.90;;;;;;5049071;28;20035;-79
2022/09/24 06:16:16;;;;;;;17.45;2.55;;;13.70;99.90;;;;;;5066366;28;20051;-78
2022/09/24 06:18:43;;;;;;;29.98;3.80;;;13.70;99.90;;;;;;5064420;28;20071;-77
2022/09/24 06:21:14;;;;;;;15.02;2.45;;;13.70;99.90;;;;;;5045130;28;20430;-80
2022/09/24 06:23:40;;;;;;;26.92;3.00;;;13.70;99.90;;;;;;5067355;28;20051;-78
2022/09/24 06:26:09;;;;;;;21.92;2.85;;;13.70;99.90;;;;;;5060893;28;20035;-79
2022/09/24 06:28:36;;;;;;;23.45;3.53;;;13.80;99.90;;;;;;5050147;28;20360;-80
2022/09/24 06:31:03;;;;;;;15.48;2.50;;;13.80;99.90;;;;;;5055164;28;20047;-78
2022/09/24 06:33:29;;;;;;;20.60;2.53;;;13.80;99.90;;;;;;5064663;28;20042;-78
2022/09/24 06:35:59;;;;;;;20.92;2.90;;;13.70;99.90;;;;;;5063348;28;20040;-78
2022/09/24 06:38:25;;;;;;;23.10;3.20;;;13.80;99.90;;;;;;5067284;28;20044;-78
2022/09/24 06:40:51;;;;;;;22.55;2.83;;;13.80;99.90;;;;;;5044498;28;20107;-77
2022/09/24 06:43:17;;;;;;;20.88;2.60;;;13.80;99.90;;;;;;5045153;28;20135;-79
2022/09/24 06:45:43;;;;;;;25.35;2.88;;;13.80;99.90;;;;;;5067229;28;20123;-78
2022/09/24 06:48:11;;;;;;;28.38;3.42;;;13.70;99.90;;;;;;5043537;28;20044;-79
2022/09/24 06:50:40;;;;;;;18.02;2.78;;;13.80;99.90;;;;;;5042611;28;20032;-80
2022/09/24 06:53:07;;;;;;;23.83;3.05;;;13.80;99.90;;;;;;5059601;28;20048;-80
2022/09/24 06:55:34;;;;;;;21.35;2.90;;;13.80;99.90;;;;;;5060645;28;20052;-78
2022/09/24 06:58:07;;;;;;;21.27;2.78;;;13.90;99.90;;;;;;5060271;28;20038;-79
2022/09/24 07:00:34;;;;;;;27.50;3.13;;;13.80;99.90;;;;;;5060524;28;20052;-79
2022/09/24 07:03:00;;;;;;;30.73;3.20;;;13.80;99.90;;;;;;5044785;28;20048;-79
2022/09/24 07:05:25;;;;;;;18.75;2.55;;;13.80;99.90;;;;;;5062737;28;20372;-79
2022/09/24 07:07:51;;;;;;;21.00;3.00;;;13.90;99.90;;;;;;5062755;28;20079;-80
2022/09/24 07:10:17;;;;;;;28.83;3.40;;;13.90;99.90;;;;;;5048581;28;20102;-81
2022/09/24 07:12:42;;;;;;;23.92;3.70;;;14.00;99.90;;;;;;5063421;28;20067;-78
2022/09/24 07:15:09;;;;;;;18.08;2.92;;;13.80;99.90;;;;;;5029856;28;20049;-79
2022/09/24 07:17:35;;;;;;;19.70;2.90;;;14.00;99.90;;;;;;5026582;28;20041;-80
2022/09/24 07:20:01;;;;;;;25.80;3.00;;;14.00;99.90;;;;;;5022185;28;20349;-80
2022/09/24 07:22:27;;;;;;;16.60;2.50;;;14.00;99.90;;;;;;5045357;28;20060;-79
2022/09/24 07:24:53;;;;;;;17.67;2.42;;;14.10;99.90;;;;;;5022035;28;20103;-80
2022/09/24 07:27:20;;;;;;;18.90;2.35;;;14.10;99.90;;;;;;5048427;28;20082;-82
2022/09/24 07:29:46;;;;;;;22.85;3.00;;;14.10;99.90;;;;;;5043754;28;20056;-80
2022/09/24 07:32:16;;;;;;;21.70;2.83;;;14.10;99.90;;;;;;5037566;28;20139;-80
2022/09/24 07:34:42;;;;;;;24.33;2.75;;;14.10;99.90;;;;;;5039942;28;20041;-79
2022/09/24 07:37:07;;;;;;;25.33;3.75;;;14.10;99.90;;;;;;5036350;28;20360;-79
2022/09/24 07:39:33;;;;;;;21.10;2.72;;;14.10;99.90;;;;;;5023064;28;20044;-78
2022/09/24 07:42:00;;;;;;;19.83;2.72;;;14.00;99.90;;;;;;5043919;28;20041;-79
2022/09/24 07:44:27;;;;;;;18.73;2.53;;;14.10;99.90;;;;;;5040511;28;20060;-78
2022/09/24 07:46:54;;;;;;;21.25;3.03;;;14.10;99.90;;;;;;5045008;28;20091;-80
2022/09/24 07:49:20;;;;;;;12.75;2.03;;;14.00;99.90;;;;;;5026472;28;20040;-78
2022/09/24 07:51:46;;;;;;;13.13;2.22;;;14.00;99.90;;;;;;5041745;28;20060;-82
2022/09/24 07:54:12;;;;;;;21.70;2.30;;;14.00;99.90;;;;;;5044435;28;20101;-78
2022/09/24 07:56:38;;;;;;;19.50;2.17;;;14.00;99.90;;;;;;5024007;28;20500;-79
2022/09/24 07:59:05;;;;;;;15.05;2.50;;;14.10;99.90;;;;;;5040680;28;20045;-82
2022/09/24 08:01:33;;;;;;;19.63;2.22;;;14.00;99.90;;;;;;5024210;28;20056;-82
2022/09/24 08:03:59;;;;;;;16.73;2.47;;;13.90;99.90;;;;;;5040718;28;20056;-77
2022/09/24 08:06:26;;;;;;;14.15;2.25;;;14.00;99.90;;;;;;5045705;28;20081;-80
2022/09/24 08:08:52;;;;;;;15.80;2.30;;;14.00;99.90;;;;;;5036839;28;20063;-79
2022/09/24 08:11:19;;;;;;;17.83;2.67;;;14.00;99.90;;;;;;5040701;28;20048;-78
2022/09/24 08:13:45;;;;;;;17.63;2.75;;;14.10;99.90;;;;;;5049054;28;20059;-78
2022/09/24 08:16:11;;;;;;;16.15;2.50;;;14.10;99.90;;;;;;5065011;28;20052;-78
2022/09/24 08:18:38;;;;;;;19.27;2.65;;;14.10;99.90;;;;;;5051141;28;20055;-77
2022/09/24 08:21:10;;;;;;;16.02;2.20;;;14.20;99.90;;;;;;5051577;28;20109;-77
2022/09/24 08:23:39;;;;;;;18.90;2.30;;;14.20;99.90;;;;;;5069944;28;20039;-78
2022/09/24 08:26:05;;;;;;;18.38;2.85;;;14.40;99.90;;;;;;5047764;28;20672;-78
2022/09/24 08:28:31;;;;;;;20.67;2.83;;;14.40;99.90;;;;;;5052736;28;20055;-79
2022/09/24 08:31:15;;;;;;;16.23;2.50;;;14.50;99.90;;;;;;5054367;28;20376;-79
2022/09/24 08:33:42;;;;;;;19.05;2.55;;;14.40;99.90;;;;;;5072045;28;20056;-79
2022/09/24 08:36:09;;;;;;;21.92;2.90;;;14.40;99.90;;;;;;5052559;28;20127;-79
2022/09/24 08:38:36;;;;;;;18.77;2.88;;;14.40;99.90;;;;;;5054889;28;20116;-77
2022/09/24 08:41:10;;;;;;;19.42;2.45;;;14.40;99.90;;;;;;5043221;28;20971;-79
2022/09/24 08:43:55;;;;;;;15.80;2.60;;;14.40;99.90;;;;;;5081287;28;20036;-79
2022/09/24 08:49:28;;;;;;;19.08;2.40;;;14.40;99.90;;;;;;5066486;28;20053;-80
2022/09/24 08:52:15;;;;;;;20.52;2.53;;;14.50;99.90;;;;;;5048330;28;20052;-77
2022/09/24 08:54:44;;;;;;;16.10;2.70;;;14.50;99.90;;;;;;5064754;28;20044;-79
2022/09/24 08:57:17;;;;;;;23.02;2.55;;;14.50;99.90;;;;;;5051186;28;20057;-78
2022/09/24 08:59:50;;;;;;;15.80;2.55;;;14.50;99.90;;;;;;5066743;28;20036;-80
2022/09/24 09:02:48;;;;;;;22.50;2.60;;;14.50;99.90;;;;;;5064087;28;20100;-80
2022/09/24 09:05:36;;;;;;;18.10;2.65;;;14.60;99.90;;;;;;4972994;28;20477;-79
2022/09/24 09:08:09;;;;;;;14.43;2.30;;;14.50;99.90;;;;;;4996692;28;20498;-80
2022/09/24 09:10:38;;;;;;;15.55;2.30;;;14.60;99.90;;;;;;4967405;28;20060;-79
2022/09/24 09:13:09;;;;;;;17.58;2.80;;;14.70;99.90;;;;;;4972985;28;20401;-78
2022/09/24 09:15:41;;;;;;;16.92;2.13;;;14.70;99.90;;;;;;4972250;28;20051;-79
2022/09/24 09:18:18;;;;;;;19.90;2.38;;;14.60;99.90;;;;;;4982722;28;20167;-80
2022/09/24 09:20:47;;;;;;;19.45;2.22;;;14.60;99.90;;;;;;4987716;28;20038;-77
2022/09/24 09:23:17;;;;;;;15.23;2.13;;;14.50;99.90;;;;;;5005839;28;20126;-79
2022/09/24 09:25:55;;;;;;;13.07;1.98;;;14.60;99.90;;;;;;4972713;28;20572;-78
2022/09/24 09:28:21;;;;;;;14.55;2.03;;;14.60;99.90;;;;;;4969597;28;20054;-78
2022/09/24 09:30:55;;;;;;;12.27;1.98;;;14.70;99.90;;;;;;4976335;28;20488;-79
2022/09/24 09:33:48;;;;;;;10.43;1.63;;;14.70;99.90;;;;;;4978818;28;20050;-80
2022/09/24 09:36:25;;;;;;;6.57;1.48;;;14.60;99.90;;;;;;4946354;28;20886;-78
2022/09/24 09:39:15;;;;;;;8.00;1.15;;;14.60;99.90;;;;;;4927206;29;20156;-80
2022/09/24 09:41:57;;;;;;;7.03;1.02;;;14.70;99.90;;;;;;4983081;28;20167;-78
2022/09/24 09:44:26;;;;;;;6.10;1.00;;;14.60;99.90;;;;;;4991539;28;20081;-80
2022/09/24 09:47:10;;;;;;;6.90;0.77;;;14.60;99.90;;;;;;4991855;28;20053;-80
2022/09/24 09:49:37;;;;;;;3.13;0.90;;;14.60;99.90;;;;;;5007347;28;20061;-80
2022/09/24 09:52:14;;;;;;;5.32;1.02;;;14.60;99.90;;;;;;4974334;28;20050;-79
2022/09/24 09:54:42;;;;;;;4.57;1.10;;;14.50;99.90;;;;;;5005006;28;20096;-78
2022/09/24 09:57:18;;;;;;;7.72;1.27;;;14.70;99.90;;;;;;4993054;28;20103;-78
2022/09/24 09:59:49;;;;;;;6.53;1.15;;;14.70;99.90;;;;;;5001932;28;20049;-78
2022/09/24 10:02:40;;;;;;;6.05;1.42;;;14.60;99.90;;;;;;4996630;28;20148;-78
2022/09/24 10:05:19;;;;;;;9.90;1.45;;;14.50;99.90;;;;;;4984311;28;20103;-79
2022/09/24 10:07:45;;;;;;;6.25;1.20;;;14.60;99.90;;;;;;4983156;28;20065;-79
2022/09/24 10:10:22;;;;;;;8.65;1.20;;;14.70;99.90;;;;;;4983379;28;21881;-79
2022/09/24 10:12:52;;;;;;;8.35;1.40;;;14.80;99.90;;;;;;5017336;28;20052;-80
2022/09/24 10:15:21;;;;;;;9.43;1.40;;;14.80;99.90;;;;;;5058403;28;20066;-79
2022/09/24 10:17:52;;;;;;;5.15;0.98;;;15.00;99.90;;;;;;5058203;28;20483;-79
2022/09/24 10:20:27;;;;;;;7.30;1.35;;;15.00;99.90;;;;;;5060952;28;20036;-79
2022/09/24 10:22:56;;;;;;;8.43;1.33;;;15.10;99.90;;;;;;5039727;28;20289;-79
2022/09/24 10:25:25;;;;;;;7.20;1.10;;;15.10;99.90;;;;;;5062285;28;20048;-78
2022/09/24 10:31:02;;;;;;;7.95;1.30;;;15.00;99.90;;;;;;5058457;28;20442;-78
2022/09/24 10:33:39;;;;;;;5.38;1.13;;;14.90;99.90;;;;;;5028795;28;20052;-79
2022/09/24 10:36:21;;;;;;;9.48;1.63;;;14.80;99.90;;;;;;5058939;28;20062;-81
2022/09/24 10:38:47;;;;;;;7.15;1.30;;;14.70;99.90;;;;;;5060965;28;20050;-80
2022/09/24 10:41:25;;;;;;;10.25;1.42;;;14.70;99.90;;;;;;5044309;28;20088;-79
2022/09/24 10:43:53;;;;;;;9.85;1.50;;;14.80;99.90;;;;;;5043917;28;20368;-81
2022/09/24 10:46:34;;;;;;;9.88;1.73;;;14.80;99.90;;;;;;5043141;28;20043;-79
2022/09/24 10:49:28;;;;;;;12.05;1.83;;;14.70;99.90;;;;;;5057831;28;20059;-79
2022/09/24 10:51:59;;;;;;;13.73;1.93;;;14.80;99.90;;;;;;5061643;28;20083;-80
2022/09/24 10:55:03;;;;;;;9.52;1.60;;;14.80;99.90;;;;;;5067159;28;20071;-80
2022/09/24 10:58:04;;;;;;;11.63;1.80;;;14.80;99.90;;;;;;5068742;28;20123;-79
2022/09/24 11:01:20;;;;;;;10.65;1.75;;;14.80;99.90;;;;;;5007759;28;20053;-80
2022/09/24 11:03:54;;;;;;;11.00;1.77;;;14.70;99.90;;;;;;5036768;28;20045;-79
2022/09/24 11:06:40;;;;;;;6.93;1.30;;;14.80;99.90;;;;;;5003049;28;20053;-81
2022/09/24 11:09:24;;;;;;;15.13;1.95;;;14.70;99.90;;;;;;4998197;28;20452;-81
2022/09/24 11:12:06;;;;;;;15.77;2.20;;;14.60;99.90;;;;;;5001006;28;20072;-79
2022/09/24 11:14:45;;;;;;;11.95;1.65;;;14.50;99.90;;;;;;5003335;28;20374;-79
2022/09/24 11:17:43;;;;;;;10.55;2.00;;;14.40;99.90;;;;;;4988698;28;20148;-79
2022/09/24 11:20:20;;;;;;;11.45;1.95;;;14.40;99.90;;;;;;4966866;28;20042;-79
2022/09/24 11:22:56;;;;;;;10.75;1.90;;;14.50;99.90;;;;;;4961988;28;21000;-79
2022/09/24 11:25:24;;;;;;;11.55;1.63;;;14.40;99.90;;;;;;4967826;28;20151;-79
2022/09/24 11:27:55;;;;;;;9.63;1.90;;;14.50;99.90;;;;;;4961724;28;20058;-81
2022/09/24 11:30:46;;;;;;;11.02;1.48;;;14.40;99.90;;;;;;4959187;28;20201;-81
2022/09/24 11:33:44;;;;;;;7.93;1.50;;;14.40;99.90;;;;;;4958718;28;20348;-78
2022/09/24 11:36:37;;;;;;;9.40;1.60;;;14.40;99.90;;;;;;4931075;28;20122;-79
2022/09/24 11:39:20;;;;;;;12.23;1.83;;;14.40;99.90;;;;;;4949195;28;20458;-79
2022/09/24 11:41:55;;;;;;;9.30;1.80;;;14.50;99.90;;;;;;4923388;28;20055;-78
2022/09/24 11:44:42;;;;;;;6.78;1.30;;;14.50;99.90;;;;;;4930119;28;20054;-79
2022/09/24 11:47:25;;;;;;;10.65;2.33;;;14.50;99.90;;;;;;4936219;28;20213;-80
2022/09/24 11:49:53;;;;;;;9.07;1.38;;;14.60;99.90;;;;;;4927407;28;20084;-80
2022/09/24 11:52:30;;;;;;;6.38;1.20;;;14.60;99.90;;;;;;4931984;28;20166;-80
2022/09/24 11:55:24;;;;;;;8.93;1.30;;;14.70;99.90;;;;;;4936962;28;20146;-79
2022/09/24 11:58:08;;;;;;;5.50;1.10;;;14.80;99.90;;;;;;4984583;28;20133;-82
2022/09/24 12:00:41;;;;;;;8.35;1.30;;;14.80;99.90;;;;;;4972389;28;20046;-80
2022/09/24 12:03:22;;;;;;;7.03;1.13;;;14.90;99.90;;;;;;4967625;28;20104;-79
2022/09/24 12:05:59;;;;;;;8.60;1.17;;;14.90;99.90;;;;;;4970018;28;20054;-81
2022/09/24 12:08:33;;;;;;;6.38;1.30;;;14.90;99.90;;;;;;4968995;28;20057;-82
2022/09/24 12:11:14;;;;;;;7.07;1.40;;;14.90;99.90;;;;;;4968910;28;20145;-80
2022/09/24 12:13:45;;;;;;;9.57;1.40;;;15.00;99.90;;;;;;5082895;28;20052;-81
2022/09/24 12:16:36;;;;;;;5.53;1.30;;;15.00;99.90;;;;;;5066322;28;20040;-80
2022/09/24 12:19:27;;;;;;;7.30;1.17;;;14.90;99.90;;;;;;5065594;28;20098;-80
2022/09/24 12:21:57;;;;;;;8.32;1.25;;;14.90;99.90;;;;;;5052206;28;20082;-80
2022/09/24 12:24:47;;;;;;;8.38;1.60;;;14.80;99.90;;;;;;5070855;28;20063;-80
2022/09/24 12:27:36;;;;;;;3.70;0.90;;;14.90;99.90;;;;;;5056284;28;20471;-81
2022/09/24 12:33:47;;;;;;;6.10;1.20;;;14.70;99.90;;;;;;5070795;28;20042;-80
2022/09/24 12:36:27;;;;;;;8.88;1.23;;;14.80;99.90;;;;;;5050862;28;20495;-80
2022/09/24 12:39:08;;;;;;;7.45;1.50;;;14.70;99.90;;;;;;5056918;28;20040;-78
2022/09/24 12:41:35;;;;;;;5.55;1.50;;;14.60;99.90;;;;;;5062370;28;20186;-79
2022/09/24 12:44:17;;;;;;;5.93;1.20;;;14.60;99.90;;;;;;5066662;28;20051;-81
2022/09/24 12:46:53;;;;;;;5.40;1.17;;;14.60;99.90;;;;;;5051460;28;20127;-81
2022/09/24 12:49:27;;;;;;;9.35;1.40;;;14.50;99.90;;;;;;5032970;28;20052;-80
2022/09/24 12:51:55;;;;;;;7.10;1.00;;;14.50;99.90;;;;;;5051239;28;20040;-79
2022/09/24 12:54:34;;;;;;;6.22;1.20;;;14.40;99.90;;;;;;5050553;28;20190;-80
2022/09/24 12:57:11;;;;;;;6.10;1.00;;;14.40;99.90;;;;;;5048541;28;20060;-81
2022/09/24 12:59:54;;;;;;;8.70;1.10;;;14.40;99.90;;;;;;5063617;28;20040;-81
2022/09/24 13:02:28;;;;;;;6.25;1.17;;;14.40;99.90;;;;;;5045042;28;20408;-80
2022/09/24 13:05:00;;;;;;;8.02;0.82;;;14.40;99.90;;;;;;5082366;28;20042;-78
2022/09/24 13:07:31;;;;;;;8.52;1.52;;;14.40;99.90;;;;;;5053916;28;20126;-78
2022/09/24 13:10:15;;;;;;;8.88;1.35;;;14.20;99.90;;;;;;5064913;28;20507;-78
2022/09/24 13:12:42;;;;;;;11.10;1.58;;;14.20;99.90;;;;;;5067867;28;20127;-80
2022/09/24 13:15:32;;;;;;;11.45;1.67;;;14.20;99.90;;;;;;5045228;28;20039;-79
2022/09/24 13:18:16;;;;;;;7.50;1.27;;;14.30;99.90;;;;;;5065044;28;20032;-82